sensor_id;sensor_type;location;lat;lon;timestamp;P1;durP1;ratioP1;P2;durP2;ratioP2
52674;SDS011;38569;52.722;6.440;2023-01-24T00:01:13;27.20;;;19.90;;
52674;SDS011;38569;52.722;6.440;2023-01-24T00:03:39;28.52;;;17.65;;
52674;SDS011;38569;52.722;6.440;2023-01-24T00:06:04;32.47;;;20.92;;
52674;SDS011;38569;52.722;6.440;2023-01-24T00:08:30;27.63;;;17.88;;
52674;SDS011;38569;52.722;6.440;2023-01-24T00:11:04;31.05;;;20.30;;
52674;SDS011;38569;52.722;6.440;2023-01-24T00:13:33;35.15;;;21.10;;
52674;SDS011;38569;52.722;6.440;2023-01-24T00:16:13;30.83;;;18.98;;
52674;SDS011;38569;52.722;6.440;2023-01-24T00:18:43;31.40;;;20.85;;
52674;SDS011;38569;52.722;6.440;2023-01-24T00:21:10;31.38;;;19.88;;
52674;SDS011;38569;52.722;6.440;2023-01-24T00:23:44;27.35;;;18.08;;
52674;SDS011;38569;52.722;6.440;2023-01-24T00:26:12;32.67;;;19.13;;
52674;SDS011;38569;52.722;6.440;2023-01-24T00:28:38;30.38;;;18.40;;
52674;SDS011;38569;52.722;6.440;2023-01-24T00:31:04;32.78;;;20.40;;
52674;SDS011;38569;52.722;6.440;2023-01-24T00:33:30;31.10;;;18.45;;
52674;SDS011;38569;52.722;6.440;2023-01-24T00:35:56;29.75;;;18.10;;
52674;SDS011;38569;52.722;6.440;2023-01-24T00:38:22;31.83;;;20.00;;
52674;SDS011;38569;52.722;6.440;2023-01-24T00:40:48;31.08;;;19.70;;
52674;SDS011;38569;52.722;6.440;2023-01-24T00:43:15;26.00;;;17.58;;
52674;SDS011;38569;52.722;6.440;2023-01-24T00:45:40;29.98;;;18.85;;
52674;SDS011;38569;52.722;6.440;2023-01-24T00:48:08;30.80;;;19.73;;
52674;SDS011;38569;52.722;6.440;2023-01-24T00:50:34;34.35;;;20.65;;
52674;SDS011;38569;52.722;6.440;2023-01-24T00:53:00;28.48;;;18.58;;
52674;SDS011;38569;52.722;6.440;2023-01-24T00:55:27;27.85;;;19.15;;
52674;SDS011;38569;52.722;6.440;2023-01-24T00:57:52;30.38;;;21.38;;
52674;SDS011;38569;52.722;6.440;2023-01-24T01:00:19;29.75;;;18.92;;
52674;SDS011;38569;52.722;6.440;2023-01-24T01:02:46;29.77;;;19.08;;
52674;SDS011;38569;52.722;6.440;2023-01-24T01:05:12;34.92;;;20.40;;
52674;SDS011;38569;52.722;6.440;2023-01-24T01:07:38;29.70;;;19.63;;
52674;SDS011;38569;52.722;6.440;2023-01-24T01:10:04;28.25;;;20.00;;
52674;SDS011;38569;52.722;6.440;2023-01-24T01:12:30;29.65;;;19.65;;
52674;SDS011;38569;52.722;6.440;2023-01-24T01:14:56;30.55;;;19.30;;
52674;SDS011;38569;52.722;6.440;2023-01-24T01:17:22;29.45;;;20.42;;
52674;SDS011;38569;52.722;6.440;2023-01-24T01:19:51;26.23;;;18.83;;
52674;SDS011;38569;52.722;6.440;2023-01-24T01:22:18;28.17;;;19.48;;
52674;SDS011;38569;52.722;6.440;2023-01-24T01:24:43;26.80;;;18.77;;
52674;SDS011;38569;52.722;6.440;2023-01-24T01:27:09;34.08;;;20.20;;
52674;SDS011;38569;52.722;6.440;2023-01-24T01:29:35;25.85;;;18.45;;
52674;SDS011;38569;52.722;6.440;2023-01-24T01:32:01;28.83;;;17.88;;
52674;SDS011;38569;52.722;6.440;2023-01-24T01:34:27;30.33;;;19.27;;
52674;SDS011;38569;52.722;6.440;2023-01-24T01:36:53;23.67;;;17.88;;
52674;SDS011;38569;52.722;6.440;2023-01-24T01:39:19;25.75;;;17.42;;
52674;SDS011;38569;52.722;6.440;2023-01-24T01:41:44;21.95;;;16.02;;
52674;SDS011;38569;52.722;6.440;2023-01-24T01:44:29;19.67;;;14.40;;
52674;SDS011;38569;52.722;6.440;2023-01-24T01:52:44;26.92;;;17.75;;
52674;SDS011;38569;52.722;6.440;2023-01-24T01:55:20;27.67;;;17.20;;
52674;SDS011;38569;52.722;6.440;2023-01-24T01:57:47;28.35;;;17.05;;
52674;SDS011;38569;52.722;6.440;2023-01-24T02:00:17;25.70;;;18.08;;
52674;SDS011;38569;52.722;6.440;2023-01-24T02:02:46;29.00;;;18.70;;
52674;SDS011;38569;52.722;6.440;2023-01-24T02:05:16;27.00;;;19.90;;
52674;SDS011;38569;52.722;6.440;2023-01-24T02:07:59;23.27;;;15.68;;
52674;SDS011;38569;52.722;6.440;2023-01-24T02:10:28;24.40;;;15.60;;
52674;SDS011;38569;52.722;6.440;2023-01-24T02:13:15;23.80;;;15.85;;
52674;SDS011;38569;52.722;6.440;2023-01-24T02:15:41;21.88;;;15.65;;
52674;SDS011;38569;52.722;6.440;2023-01-24T02:18:27;27.02;;;17.00;;
52674;SDS011;38569;52.722;6.440;2023-01-24T02:20:52;24.27;;;16.50;;
52674;SDS011;38569;52.722;6.440;2023-01-24T02:23:24;21.90;;;15.73;;
52674;SDS011;38569;52.722;6.440;2023-01-24T02:28:34;25.23;;;14.02;;
52674;SDS011;38569;52.722;6.440;2023-01-24T02:31:01;20.88;;;14.15;;
52674;SDS011;38569;52.722;6.440;2023-01-24T02:33:29;21.00;;;13.18;;
52674;SDS011;38569;52.722;6.440;2023-01-24T02:36:06;22.48;;;14.00;;
52674;SDS011;38569;52.722;6.440;2023-01-24T02:39:07;20.10;;;13.65;;
52674;SDS011;38569;52.722;6.440;2023-01-24T02:41:48;22.58;;;13.93;;
52674;SDS011;38569;52.722;6.440;2023-01-24T02:44:18;21.67;;;14.50;;
52674;SDS011;38569;52.722;6.440;2023-01-24T02:46:50;20.35;;;14.82;;
52674;SDS011;38569;52.722;6.440;2023-01-24T02:49:15;21.17;;;15.15;;
52674;SDS011;38569;52.722;6.440;2023-01-24T02:51:41;22.52;;;15.63;;
52674;SDS011;38569;52.722;6.440;2023-01-24T02:54:25;22.33;;;14.45;;
52674;SDS011;38569;52.722;6.440;2023-01-24T02:56:51;22.45;;;14.25;;
52674;SDS011;38569;52.722;6.440;2023-01-24T02:59:35;27.58;;;15.25;;
52674;SDS011;38569;52.722;6.440;2023-01-24T03:02:01;23.27;;;15.38;;
52674;SDS011;38569;52.722;6.440;2023-01-24T03:04:27;22.70;;;15.90;;
52674;SDS011;38569;52.722;6.440;2023-01-24T03:06:52;21.95;;;14.80;;
52674;SDS011;38569;52.722;6.440;2023-01-24T03:09:18;23.23;;;15.63;;
52674;SDS011;38569;52.722;6.440;2023-01-24T03:11:45;23.25;;;15.77;;
52674;SDS011;38569;52.722;6.440;2023-01-24T03:14:12;22.38;;;15.98;;
52674;SDS011;38569;52.722;6.440;2023-01-24T03:16:57;21.52;;;15.45;;
52674;SDS011;38569;52.722;6.440;2023-01-24T03:19:41;23.58;;;15.40;;
52674;SDS011;38569;52.722;6.440;2023-01-24T03:22:26;22.88;;;15.02;;
52674;SDS011;38569;52.722;6.440;2023-01-24T03:25:10;23.65;;;15.68;;
52674;SDS011;38569;52.722;6.440;2023-01-24T03:27:54;20.85;;;13.45;;
52674;SDS011;38569;52.722;6.440;2023-01-24T03:30:38;22.83;;;15.35;;
52674;SDS011;38569;52.722;6.440;2023-01-24T03:36:07;19.27;;;13.25;;
52674;SDS011;38569;52.722;6.440;2023-01-24T03:38:38;23.70;;;14.90;;
52674;SDS011;38569;52.722;6.440;2023-01-24T03:41:22;22.80;;;14.90;;
52674;SDS011;38569;52.722;6.440;2023-01-24T03:43:48;19.20;;;13.30;;
52674;SDS011;38569;52.722;6.440;2023-01-24T03:46:13;22.05;;;14.18;;
52674;SDS011;38569;52.722;6.440;2023-01-24T03:48:39;26.38;;;15.57;;
52674;SDS011;38569;52.722;6.440;2023-01-24T03:51:05;22.38;;;15.05;;
52674;SDS011;38569;52.722;6.440;2023-01-24T03:53:49;19.05;;;14.40;;
52674;SDS011;38569;52.722;6.440;2023-01-24T03:56:15;21.80;;;15.57;;
52674;SDS011;38569;52.722;6.440;2023-01-24T03:58:41;18.70;;;12.32;;
52674;SDS011;38569;52.722;6.440;2023-01-24T04:01:06;19.38;;;13.93;;
52674;SDS011;38569;52.722;6.440;2023-01-24T04:03:32;17.40;;;12.07;;
52674;SDS011;38569;52.722;6.440;2023-01-24T04:05:58;19.08;;;13.88;;
52674;SDS011;38569;52.722;6.440;2023-01-24T04:08:24;19.23;;;12.48;;
52674;SDS011;38569;52.722;6.440;2023-01-24T04:10:50;19.45;;;12.40;;
52674;SDS011;38569;52.722;6.440;2023-01-24T04:13:16;17.23;;;11.85;;
52674;SDS011;38569;52.722;6.440;2023-01-24T04:15:42;21.80;;;12.60;;
52674;SDS011;38569;52.722;6.440;2023-01-24T04:18:09;17.42;;;11.88;;
52674;SDS011;38569;52.722;6.440;2023-01-24T04:20:36;17.83;;;12.25;;
52674;SDS011;38569;52.722;6.440;2023-01-24T04:23:03;16.75;;;12.32;;
52674;SDS011;38569;52.722;6.440;2023-01-24T04:25:30;18.00;;;12.50;;
52674;SDS011;38569;52.722;6.440;2023-01-24T04:27:57;16.83;;;11.43;;
52674;SDS011;38569;52.722;6.440;2023-01-24T04:30:23;16.77;;;12.02;;
52674;SDS011;38569;52.722;6.440;2023-01-24T04:32:49;20.30;;;13.50;;
52674;SDS011;38569;52.722;6.440;2023-01-24T04:35:19;19.55;;;13.07;;
52674;SDS011;38569;52.722;6.440;2023-01-24T04:37:46;19.50;;;12.45;;
52674;SDS011;38569;52.722;6.440;2023-01-24T04:40:12;14.00;;;8.85;;
52674;SDS011;38569;52.722;6.440;2023-01-24T04:42:40;21.38;;;12.68;;
52674;SDS011;38569;52.722;6.440;2023-01-24T04:45:06;16.42;;;11.32;;
52674;SDS011;38569;52.722;6.440;2023-01-24T04:47:32;19.90;;;12.85;;
52674;SDS011;38569;52.722;6.440;2023-01-24T04:49:58;15.23;;;10.57;;
52674;SDS011;38569;52.722;6.440;2023-01-24T04:52:24;16.67;;;10.95;;
52674;SDS011;38569;52.722;6.440;2023-01-24T04:54:49;12.52;;;9.32;;
52674;SDS011;38569;52.722;6.440;2023-01-24T04:57:16;18.33;;;10.70;;
52674;SDS011;38569;52.722;6.440;2023-01-24T04:59:43;16.50;;;9.52;;
52674;SDS011;38569;52.722;6.440;2023-01-24T05:02:09;15.93;;;9.27;;
52674;SDS011;38569;52.722;6.440;2023-01-24T05:04:34;16.02;;;10.30;;
52674;SDS011;38569;52.722;6.440;2023-01-24T05:07:00;15.50;;;10.45;;
52674;SDS011;38569;52.722;6.440;2023-01-24T05:09:26;17.50;;;11.50;;
52674;SDS011;38569;52.722;6.440;2023-01-24T05:11:52;17.92;;;11.07;;
52674;SDS011;38569;52.722;6.440;2023-01-24T05:14:18;12.88;;;8.38;;
52674;SDS011;38569;52.722;6.440;2023-01-24T05:16:44;15.85;;;10.07;;
52674;SDS011;38569;52.722;6.440;2023-01-24T05:19:09;13.10;;;9.65;;
52674;SDS011;38569;52.722;6.440;2023-01-24T05:21:35;15.02;;;9.68;;
52674;SDS011;38569;52.722;6.440;2023-01-24T05:24:01;14.40;;;10.20;;
52674;SDS011;38569;52.722;6.440;2023-01-24T05:26:28;15.68;;;10.50;;
52674;SDS011;38569;52.722;6.440;2023-01-24T05:28:54;14.90;;;10.07;;
52674;SDS011;38569;52.722;6.440;2023-01-24T05:31:20;15.90;;;11.05;;
52674;SDS011;38569;52.722;6.440;2023-01-24T05:33:46;16.55;;;10.30;;
52674;SDS011;38569;52.722;6.440;2023-01-24T05:36:18;16.23;;;9.68;;
52674;SDS011;38569;52.722;6.440;2023-01-24T05:38:45;15.13;;;10.13;;
52674;SDS011;38569;52.722;6.440;2023-01-24T05:41:13;15.98;;;9.60;;
52674;SDS011;38569;52.722;6.440;2023-01-24T05:43:43;17.13;;;10.80;;
52674;SDS011;38569;52.722;6.440;2023-01-24T05:46:11;17.52;;;11.30;;
52674;SDS011;38569;52.722;6.440;2023-01-24T05:48:39;15.82;;;10.68;;
52674;SDS011;38569;52.722;6.440;2023-01-24T05:51:07;15.77;;;10.73;;
52674;SDS011;38569;52.722;6.440;2023-01-24T05:53:35;14.82;;;10.10;;
52674;SDS011;38569;52.722;6.440;2023-01-24T05:56:04;17.40;;;11.15;;
52674;SDS011;38569;52.722;6.440;2023-01-24T05:58:37;15.10;;;11.00;;
52674;SDS011;38569;52.722;6.440;2023-01-24T06:01:07;15.98;;;10.88;;
52674;SDS011;38569;52.722;6.440;2023-01-24T06:03:34;13.43;;;8.07;;
52674;SDS011;38569;52.722;6.440;2023-01-24T06:06:02;16.02;;;9.45;;
52674;SDS011;38569;52.722;6.440;2023-01-24T06:08:28;15.35;;;9.68;;
52674;SDS011;38569;52.722;6.440;2023-01-24T06:10:54;16.88;;;9.95;;
52674;SDS011;38569;52.722;6.440;2023-01-24T06:13:19;14.93;;;9.90;;
52674;SDS011;38569;52.722;6.440;2023-01-24T06:15:45;15.55;;;12.00;;
52674;SDS011;38569;52.722;6.440;2023-01-24T06:18:12;14.88;;;10.88;;
52674;SDS011;38569;52.722;6.440;2023-01-24T06:20:43;11.32;;;8.55;;
52674;SDS011;38569;52.722;6.440;2023-01-24T06:23:20;16.40;;;10.43;;
52674;SDS011;38569;52.722;6.440;2023-01-24T06:25:49;15.10;;;11.02;;
52674;SDS011;38569;52.722;6.440;2023-01-24T06:28:15;16.10;;;10.95;;
52674;SDS011;38569;52.722;6.440;2023-01-24T06:30:41;16.90;;;10.55;;
52674;SDS011;38569;52.722;6.440;2023-01-24T06:38:37;13.45;;;10.35;;
52674;SDS011;38569;52.722;6.440;2023-01-24T06:41:13;18.58;;;11.15;;
52674;SDS011;38569;52.722;6.440;2023-01-24T06:43:41;17.50;;;10.98;;
52674;SDS011;38569;52.722;6.440;2023-01-24T06:46:11;15.23;;;8.82;;
52674;SDS011;38569;52.722;6.440;2023-01-24T06:48:38;13.27;;;9.70;;
52674;SDS011;38569;52.722;6.440;2023-01-24T06:51:04;13.18;;;9.02;;
52674;SDS011;38569;52.722;6.440;2023-01-24T06:53:31;14.48;;;10.18;;
52674;SDS011;38569;52.722;6.440;2023-01-24T06:55:58;16.67;;;11.57;;
52674;SDS011;38569;52.722;6.440;2023-01-24T06:58:24;16.67;;;11.77;;
52674;SDS011;38569;52.722;6.440;2023-01-24T07:00:51;16.77;;;10.88;;
52674;SDS011;38569;52.722;6.440;2023-01-24T07:03:18;16.90;;;11.25;;
52674;SDS011;38569;52.722;6.440;2023-01-24T07:05:44;17.73;;;11.88;;
52674;SDS011;38569;52.722;6.440;2023-01-24T07:08:10;17.33;;;10.98;;
52674;SDS011;38569;52.722;6.440;2023-01-24T07:10:36;16.02;;;11.20;;
52674;SDS011;38569;52.722;6.440;2023-01-24T07:13:04;14.80;;;10.50;;
52674;SDS011;38569;52.722;6.440;2023-01-24T07:15:29;17.80;;;11.82;;
52674;SDS011;38569;52.722;6.440;2023-01-24T07:17:55;15.50;;;11.75;;
52674;SDS011;38569;52.722;6.440;2023-01-24T07:20:22;16.10;;;11.73;;
52674;SDS011;38569;52.722;6.440;2023-01-24T07:22:47;15.27;;;10.82;;
52674;SDS011;38569;52.722;6.440;2023-01-24T07:25:14;16.55;;;11.57;;
52674;SDS011;38569;52.722;6.440;2023-01-24T07:27:43;15.52;;;10.77;;
52674;SDS011;38569;52.722;6.440;2023-01-24T07:30:10;19.98;;;11.63;;
52674;SDS011;38569;52.722;6.440;2023-01-24T07:32:37;16.27;;;11.80;;
52674;SDS011;38569;52.722;6.440;2023-01-24T07:35:03;18.10;;;11.88;;
52674;SDS011;38569;52.722;6.440;2023-01-24T07:37:30;19.33;;;12.65;;
52674;SDS011;38569;52.722;6.440;2023-01-24T07:39:55;20.20;;;12.70;;
52674;SDS011;38569;52.722;6.440;2023-01-24T07:42:21;18.27;;;11.13;;
52674;SDS011;38569;52.722;6.440;2023-01-24T07:44:47;17.55;;;11.60;;
52674;SDS011;38569;52.722;6.440;2023-01-24T07:47:13;19.75;;;12.30;;
52674;SDS011;38569;52.722;6.440;2023-01-24T07:49:39;18.23;;;11.98;;
52674;SDS011;38569;52.722;6.440;2023-01-24T07:52:04;16.65;;;11.68;;
52674;SDS011;38569;52.722;6.440;2023-01-24T07:54:30;18.38;;;11.13;;
52674;SDS011;38569;52.722;6.440;2023-01-24T07:56:56;18.15;;;10.90;;
52674;SDS011;38569;52.722;6.440;2023-01-24T07:59:22;15.77;;;11.32;;
52674;SDS011;38569;52.722;6.440;2023-01-24T08:01:47;17.38;;;11.82;;
52674;SDS011;38569;52.722;6.440;2023-01-24T08:04:13;15.60;;;11.02;;
52674;SDS011;38569;52.722;6.440;2023-01-24T08:06:39;17.25;;;10.80;;
52674;SDS011;38569;52.722;6.440;2023-01-24T08:09:28;20.92;;;11.60;;
52674;SDS011;38569;52.722;6.440;2023-01-24T08:11:54;14.18;;;10.02;;
52674;SDS011;38569;52.722;6.440;2023-01-24T08:14:20;15.60;;;10.35;;
52674;SDS011;38569;52.722;6.440;2023-01-24T08:16:47;14.10;;;10.43;;
52674;SDS011;38569;52.722;6.440;2023-01-24T08:19:13;16.42;;;11.38;;
52674;SDS011;38569;52.722;6.440;2023-01-24T08:21:39;15.57;;;11.70;;
52674;SDS011;38569;52.722;6.440;2023-01-24T08:24:05;14.48;;;10.73;;
52674;SDS011;38569;52.722;6.440;2023-01-24T08:26:31;18.58;;;11.77;;
52674;SDS011;38569;52.722;6.440;2023-01-24T08:28:57;16.20;;;11.82;;
52674;SDS011;38569;52.722;6.440;2023-01-24T08:31:22;19.02;;;12.43;;
52674;SDS011;38569;52.722;6.440;2023-01-24T08:33:48;16.55;;;11.13;;
52674;SDS011;38569;52.722;6.440;2023-01-24T08:36:14;19.80;;;12.50;;
52674;SDS011;38569;52.722;6.440;2023-01-24T08:38:42;17.75;;;12.73;;
52674;SDS011;38569;52.722;6.440;2023-01-24T08:41:08;13.82;;;10.10;;
52674;SDS011;38569;52.722;6.440;2023-01-24T08:43:36;16.40;;;11.93;;
52674;SDS011;38569;52.722;6.440;2023-01-24T08:46:02;19.55;;;12.52;;
52674;SDS011;38569;52.722;6.440;2023-01-24T08:48:28;13.23;;;10.75;;
52674;SDS011;38569;52.722;6.440;2023-01-24T08:50:54;15.95;;;10.70;;
52674;SDS011;38569;52.722;6.440;2023-01-24T08:53:20;16.23;;;11.73;;
52674;SDS011;38569;52.722;6.440;2023-01-24T08:55:51;17.00;;;13.27;;
52674;SDS011;38569;52.722;6.440;2023-01-24T08:58:18;17.73;;;12.27;;
52674;SDS011;38569;52.722;6.440;2023-01-24T09:00:43;18.55;;;11.48;;
52674;SDS011;38569;52.722;6.440;2023-01-24T09:03:10;15.02;;;10.93;;
52674;SDS011;38569;52.722;6.440;2023-01-24T09:05:37;17.75;;;11.45;;
52674;SDS011;38569;52.722;6.440;2023-01-24T09:08:03;17.02;;;11.52;;
52674;SDS011;38569;52.722;6.440;2023-01-24T09:10:30;18.67;;;12.02;;
52674;SDS011;38569;52.722;6.440;2023-01-24T09:12:56;15.55;;;11.85;;
52674;SDS011;38569;52.722;6.440;2023-01-24T09:15:22;18.80;;;12.98;;
52674;SDS011;38569;52.722;6.440;2023-01-24T09:17:48;20.02;;;13.32;;
52674;SDS011;38569;52.722;6.440;2023-01-24T09:20:13;18.58;;;12.52;;
52674;SDS011;38569;52.722;6.440;2023-01-24T09:22:39;16.70;;;12.30;;
52674;SDS011;38569;52.722;6.440;2023-01-24T09:25:06;17.30;;;12.32;;
52674;SDS011;38569;52.722;6.440;2023-01-24T09:27:33;18.60;;;13.35;;
52674;SDS011;38569;52.722;6.440;2023-01-24T09:29:59;17.00;;;11.93;;
52674;SDS011;38569;52.722;6.440;2023-01-24T09:32:25;16.52;;;12.40;;
52674;SDS011;38569;52.722;6.440;2023-01-24T09:34:50;17.48;;;12.82;;
52674;SDS011;38569;52.722;6.440;2023-01-24T09:37:17;20.08;;;12.40;;
52674;SDS011;38569;52.722;6.440;2023-01-24T09:39:46;14.32;;;11.82;;
52674;SDS011;38569;52.722;6.440;2023-01-24T09:42:15;16.38;;;12.18;;
52674;SDS011;38569;52.722;6.440;2023-01-24T09:44:54;18.30;;;13.02;;
52674;SDS011;38569;52.722;6.440;2023-01-24T09:47:23;16.38;;;12.63;;
52674;SDS011;38569;52.722;6.440;2023-01-24T09:49:59;15.40;;;12.02;;
52674;SDS011;38569;52.722;6.440;2023-01-24T09:52:30;17.63;;;12.80;;
52674;SDS011;38569;52.722;6.440;2023-01-24T10:00:44;16.60;;;12.15;;
52674;SDS011;38569;52.722;6.440;2023-01-24T10:03:12;17.50;;;12.18;;
52674;SDS011;38569;52.722;6.440;2023-01-24T10:05:46;18.08;;;13.07;;
52674;SDS011;38569;52.722;6.440;2023-01-24T10:14:20;19.02;;;12.98;;
52674;SDS011;38569;52.722;6.440;2023-01-24T10:23:27;17.60;;;12.95;;
52674;SDS011;38569;52.722;6.440;2023-01-24T10:28:02;16.65;;;12.60;;
52674;SDS011;38569;52.722;6.440;2023-01-24T10:33:03;18.65;;;12.68;;
52674;SDS011;38569;52.722;6.440;2023-01-24T10:35:38;17.42;;;13.05;;
52674;SDS011;38569;52.722;6.440;2023-01-24T10:38:20;16.38;;;11.48;;
52674;SDS011;38569;52.722;6.440;2023-01-24T10:40:56;19.70;;;13.43;;
52674;SDS011;38569;52.722;6.440;2023-01-24T10:43:38;16.02;;;11.82;;
52674;SDS011;38569;52.722;6.440;2023-01-24T10:46:23;16.80;;;12.82;;
52674;SDS011;38569;52.722;6.440;2023-01-24T10:48:52;18.65;;;13.13;;
52674;SDS011;38569;52.722;6.440;2023-01-24T10:51:21;16.83;;;13.18;;
52674;SDS011;38569;52.722;6.440;2023-01-24T10:53:50;16.80;;;13.18;;
52674;SDS011;38569;52.722;6.440;2023-01-24T10:56:20;17.88;;;13.02;;
52674;SDS011;38569;52.722;6.440;2023-01-24T10:58:56;17.90;;;13.07;;
52674;SDS011;38569;52.722;6.440;2023-01-24T11:01:44;15.43;;;11.57;;
52674;SDS011;38569;52.722;6.440;2023-01-24T11:06:49;15.63;;;11.68;;
52674;SDS011;38569;52.722;6.440;2023-01-24T11:09:17;17.92;;;12.55;;
52674;SDS011;38569;52.722;6.440;2023-01-24T11:11:46;15.25;;;12.80;;
52674;SDS011;38569;52.722;6.440;2023-01-24T11:14:24;16.90;;;12.77;;
52674;SDS011;38569;52.722;6.440;2023-01-24T11:17:00;15.05;;;11.15;;
52674;SDS011;38569;52.722;6.440;2023-01-24T11:19:34;16.77;;;11.80;;
52674;SDS011;38569;52.722;6.440;2023-01-24T11:22:20;14.80;;;10.90;;
52674;SDS011;38569;52.722;6.440;2023-01-24T11:24:48;17.00;;;12.47;;
52674;SDS011;38569;52.722;6.440;2023-01-24T11:27:15;15.73;;;12.32;;
52674;SDS011;38569;52.722;6.440;2023-01-24T11:29:43;15.82;;;12.15;;
52674;SDS011;38569;52.722;6.440;2023-01-24T11:35:03;15.50;;;11.73;;
52674;SDS011;38569;52.722;6.440;2023-01-24T11:40:38;17.60;;;11.65;;
52674;SDS011;38569;52.722;6.440;2023-01-24T11:48:20;14.90;;;11.05;;
52674;SDS011;38569;52.722;6.440;2023-01-24T11:56:14;15.40;;;11.30;;
52674;SDS011;38569;52.722;6.440;2023-01-24T12:10:28;13.60;;;9.95;;
52674;SDS011;38569;52.722;6.440;2023-01-24T12:12:59;14.13;;;10.07;;
52674;SDS011;38569;52.722;6.440;2023-01-24T12:20:58;13.02;;;9.98;;
52674;SDS011;38569;52.722;6.440;2023-01-24T12:23:53;12.57;;;9.35;;
52674;SDS011;38569;52.722;6.440;2023-01-24T12:26:28;13.43;;;8.55;;
52674;SDS011;38569;52.722;6.440;2023-01-24T12:29:07;16.98;;;11.57;;
52674;SDS011;38569;52.722;6.440;2023-01-24T12:37:40;12.35;;;10.15;;
52674;SDS011;38569;52.722;6.440;2023-01-24T12:51:16;13.43;;;10.13;;
52674;SDS011;38569;52.722;6.440;2023-01-24T12:54:04;13.93;;;10.82;;
52674;SDS011;38569;52.722;6.440;2023-01-24T12:56:55;14.00;;;10.98;;
52674;SDS011;38569;52.722;6.440;2023-01-24T12:59:25;14.80;;;10.83;;
52674;SDS011;38569;52.722;6.440;2023-01-24T13:04:35;13.20;;;10.57;;
52674;SDS011;38569;52.722;6.440;2023-01-24T13:09:52;17.50;;;11.35;;
52674;SDS011;38569;52.722;6.440;2023-01-24T13:12:26;13.50;;;9.23;;
52674;SDS011;38569;52.722;6.440;2023-01-24T13:14:55;11.93;;;9.43;;
52674;SDS011;38569;52.722;6.440;2023-01-24T13:33:17;12.70;;;9.98;;
52674;SDS011;38569;52.722;6.440;2023-01-24T13:36:18;14.98;;;10.88;;
52674;SDS011;38569;52.722;6.440;2023-01-24T13:38:46;14.13;;;10.23;;
52674;SDS011;38569;52.722;6.440;2023-01-24T13:41:14;13.82;;;10.02;;
52674;SDS011;38569;52.722;6.440;2023-01-24T13:51:43;17.55;;;10.73;;
52674;SDS011;38569;52.722;6.440;2023-01-24T13:54:18;16.73;;;10.95;;
52674;SDS011;38569;52.722;6.440;2023-01-24T14:00:01;17.00;;;10.50;;
52674;SDS011;38569;52.722;6.440;2023-01-24T14:08:02;15.68;;;10.77;;
52674;SDS011;38569;52.722;6.440;2023-01-24T14:10:40;15.30;;;10.57;;
52674;SDS011;38569;52.722;6.440;2023-01-24T14:18:49;14.82;;;9.60;;
52674;SDS011;38569;52.722;6.440;2023-01-24T14:21:27;12.13;;;10.25;;
52674;SDS011;38569;52.722;6.440;2023-01-24T14:24:06;14.00;;;9.80;;
52674;SDS011;38569;52.722;6.440;2023-01-24T14:26:53;14.00;;;10.35;;
52674;SDS011;38569;52.722;6.440;2023-01-24T14:29:20;12.35;;;9.85;;
52674;SDS011;38569;52.722;6.440;2023-01-24T14:31:53;14.38;;;10.32;;
52674;SDS011;38569;52.722;6.440;2023-01-24T14:34:24;14.32;;;11.02;;
52674;SDS011;38569;52.722;6.440;2023-01-24T14:36:57;13.98;;;10.18;;
52674;SDS011;38569;52.722;6.440;2023-01-24T14:39:27;16.17;;;10.75;;
52674;SDS011;38569;52.722;6.440;2023-01-24T14:41:57;20.70;;;12.23;;
52674;SDS011;38569;52.722;6.440;2023-01-24T14:44:31;20.70;;;11.73;;
52674;SDS011;38569;52.722;6.440;2023-01-24T14:51:53;14.93;;;10.13;;
52674;SDS011;38569;52.722;6.440;2023-01-24T14:54:19;16.88;;;11.18;;
52674;SDS011;38569;52.722;6.440;2023-01-24T14:56:47;14.68;;;10.73;;
52674;SDS011;38569;52.722;6.440;2023-01-24T14:59:13;14.90;;;10.95;;
52674;SDS011;38569;52.722;6.440;2023-01-24T15:01:45;16.73;;;10.18;;
52674;SDS011;38569;52.722;6.440;2023-01-24T15:04:29;15.50;;;11.02;;
52674;SDS011;38569;52.722;6.440;2023-01-24T15:07:05;13.95;;;10.77;;
52674;SDS011;38569;52.722;6.440;2023-01-24T15:09:40;14.60;;;10.25;;
52674;SDS011;38569;52.722;6.440;2023-01-24T15:12:17;17.42;;;11.60;;
52674;SDS011;38569;52.722;6.440;2023-01-24T15:14:59;14.38;;;10.70;;
52674;SDS011;38569;52.722;6.440;2023-01-24T15:17:28;14.10;;;10.98;;
52674;SDS011;38569;52.722;6.440;2023-01-24T15:19:57;13.90;;;9.88;;
52674;SDS011;38569;52.722;6.440;2023-01-24T15:22:34;14.80;;;10.63;;
52674;SDS011;38569;52.722;6.440;2023-01-24T15:25:03;16.38;;;11.50;;
52674;SDS011;38569;52.722;6.440;2023-01-24T15:27:54;13.07;;;10.43;;
52674;SDS011;38569;52.722;6.440;2023-01-24T15:30:25;15.93;;;11.30;;
52674;SDS011;38569;52.722;6.440;2023-01-24T15:40:56;14.52;;;11.32;;
52674;SDS011;38569;52.722;6.440;2023-01-24T15:51:42;19.70;;;15.57;;
52674;SDS011;38569;52.722;6.440;2023-01-24T15:54:12;17.50;;;13.23;;
52674;SDS011;38569;52.722;6.440;2023-01-24T15:56:39;16.95;;;13.13;;
52674;SDS011;38569;52.722;6.440;2023-01-24T15:59:16;19.80;;;12.93;;
52674;SDS011;38569;52.722;6.440;2023-01-24T16:01:42;18.70;;;14.32;;
52674;SDS011;38569;52.722;6.440;2023-01-24T16:04:10;18.48;;;15.05;;
52674;SDS011;38569;52.722;6.440;2023-01-24T16:06:39;17.13;;;13.02;;
52674;SDS011;38569;52.722;6.440;2023-01-24T16:09:05;21.05;;;16.45;;
52674;SDS011;38569;52.722;6.440;2023-01-24T16:11:31;19.17;;;15.00;;
52674;SDS011;38569;52.722;6.440;2023-01-24T16:13:57;17.83;;;14.40;;
52674;SDS011;38569;52.722;6.440;2023-01-24T16:16:23;17.50;;;13.23;;
52674;SDS011;38569;52.722;6.440;2023-01-24T16:18:49;16.17;;;12.05;;
52674;SDS011;38569;52.722;6.440;2023-01-24T16:21:24;18.23;;;14.82;;
52674;SDS011;38569;52.722;6.440;2023-01-24T16:23:49;19.80;;;15.25;;
52674;SDS011;38569;52.722;6.440;2023-01-24T16:28:48;19.67;;;15.32;;
52674;SDS011;38569;52.722;6.440;2023-01-24T16:31:14;20.42;;;15.15;;
52674;SDS011;38569;52.722;6.440;2023-01-24T16:33:39;19.15;;;14.23;;
52674;SDS011;38569;52.722;6.440;2023-01-24T16:36:05;20.50;;;15.80;;
52674;SDS011;38569;52.722;6.440;2023-01-24T16:38:32;20.38;;;16.52;;
52674;SDS011;38569;52.722;6.440;2023-01-24T16:40:57;25.70;;;17.17;;
52674;SDS011;38569;52.722;6.440;2023-01-24T16:43:26;24.60;;;18.20;;
52674;SDS011;38569;52.722;6.440;2023-01-24T16:45:52;20.52;;;16.05;;
52674;SDS011;38569;52.722;6.440;2023-01-24T16:48:18;18.35;;;15.35;;
52674;SDS011;38569;52.722;6.440;2023-01-24T16:50:44;20.15;;;16.77;;
52674;SDS011;38569;52.722;6.440;2023-01-24T16:53:11;18.58;;;15.57;;
52674;SDS011;38569;52.722;6.440;2023-01-24T16:55:38;22.58;;;17.98;;
52674;SDS011;38569;52.722;6.440;2023-01-24T16:58:08;23.10;;;16.95;;
52674;SDS011;38569;52.722;6.440;2023-01-24T17:00:35;21.17;;;17.45;;
52674;SDS011;38569;52.722;6.440;2023-01-24T17:03:02;23.23;;;19.45;;
52674;SDS011;38569;52.722;6.440;2023-01-24T17:05:29;21.95;;;17.13;;
52674;SDS011;38569;52.722;6.440;2023-01-24T17:07:55;22.90;;;17.48;;
52674;SDS011;38569;52.722;6.440;2023-01-24T17:10:22;21.45;;;17.60;;
52674;SDS011;38569;52.722;6.440;2023-01-24T17:12:49;24.08;;;18.85;;
52674;SDS011;38569;52.722;6.440;2023-01-24T17:15:15;25.27;;;19.45;;
52674;SDS011;38569;52.722;6.440;2023-01-24T17:17:41;25.17;;;19.00;;